Weather at Lotnisko Gliwice-Trynek

Public forecast

Using degrees Celsius for public forecast. Weather courtesy of forecast.io.

Closest aviation weather report (METAR) to Lotnisko Gliwice-Trynek

Closest report is Katowice Wojciech Korfanty International Airport, 19.9 nm (36.9 km) NE.

2024/05/22 04:30 (retrieved 19 minutes ago)

EPKT 220430Z 15003KT 120V190 CAVOK 17/13 Q1008

Closest aviation forecast (TAF) to Lotnisko Gliwice-Trynek

Forecast is more than 12 hours old.

Closest forecast is Sliač Airport, 99.6 nm (184.5 km) S.

2024/05/21 06:30 (retrieved 22 hours ago)

TAF TAF LZSL 210430Z 2106/2118 VRB03KT 9999 BKN040 BECMG 2110/2112 14012KT